createdAt,value
2018-07-27T00:00:47.267Z,46.35
2018-07-27T00:05:39.853Z,46.91
2018-07-27T00:10:32.505Z,46.48
2018-07-27T00:15:25.074Z,46.92
2018-07-27T00:20:17.636Z,47.18
2018-07-27T00:25:10.183Z,48.05
2018-07-27T00:30:03.203Z,48.53
2018-07-27T00:34:55.812Z,48.85
2018-07-27T00:39:48.665Z,48.89
2018-07-27T00:44:41.290Z,49.96
2018-07-27T00:49:33.863Z,49.31
2018-07-27T00:54:26.470Z,49.51
2018-07-27T00:59:19.070Z,50.31
2018-07-27T01:04:11.767Z,50.99
2018-07-27T01:09:07.343Z,51.44
2018-07-27T01:13:59.982Z,51.50
2018-07-27T01:18:52.556Z,51.19
2018-07-27T01:23:45.145Z,51.59
2018-07-27T01:28:37.689Z,52.07
2018-07-27T01:33:30.281Z,52.61
2018-07-27T01:38:22.809Z,53.64
2018-07-27T01:43:15.414Z,54.39
2018-07-27T01:48:08.044Z,53.41
2018-07-27T01:53:00.644Z,54.46
2018-07-27T01:57:53.265Z,54.61
2018-07-27T02:02:45.850Z,54.79
2018-07-27T02:07:38.495Z,55.76
2018-07-27T02:12:31.104Z,55.79
2018-07-27T02:17:23.713Z,56.50
2018-07-27T02:22:16.323Z,56.99
2018-07-27T02:27:08.907Z,56.95
2018-07-27T02:32:01.545Z,57.67
2018-07-27T02:36:54.131Z,57.33
2018-07-27T02:41:46.754Z,57.77
2018-07-27T02:46:39.419Z,58.21
2018-07-27T02:51:32.031Z,58.00
2018-07-27T02:56:24.655Z,58.48
2018-07-27T03:01:17.198Z,58.51
2018-07-27T03:06:09.806Z,59.35
2018-07-27T03:11:02.463Z,59.21
2018-07-27T03:15:55.184Z,59.52
2018-07-27T03:20:47.787Z,60.15
2018-07-27T03:25:40.398Z,59.81
2018-07-27T03:30:32.966Z,59.91
2018-07-27T03:35:25.544Z,61.03
2018-07-27T03:40:18.153Z,60.74
2018-07-27T03:45:10.762Z,61.40
2018-07-27T03:50:03.899Z,61.70
2018-07-27T03:54:56.490Z,61.33
2018-07-27T03:59:49.105Z,62.48
2018-07-27T04:04:41.773Z,61.71
2018-07-27T04:09:34.485Z,62.18
2018-07-27T04:14:27.975Z,61.41
2018-07-27T04:19:20.885Z,61.45
2018-07-27T04:24:13.767Z,61.79
2018-07-27T04:29:06.391Z,61.54
2018-07-27T04:33:58.994Z,61.82
2018-07-27T04:38:51.627Z,61.25
2018-07-27T04:43:44.518Z,60.44
2018-07-27T04:48:37.291Z,60.69
2018-07-27T04:53:29.926Z,60.08
2018-07-27T04:58:22.659Z,60.53
2018-07-27T05:03:15.303Z,59.66
2018-07-27T05:08:07.939Z,59.65
2018-07-27T05:13:00.667Z,60.64
2018-07-27T05:17:53.393Z,60.31
2018-07-27T05:22:46.158Z,59.38
2018-07-27T05:27:38.817Z,60.30
2018-07-27T05:32:31.426Z,60.21
2018-07-27T05:37:24.054Z,59.99
2018-07-27T05:42:16.848Z,59.15
2018-07-27T05:47:09.540Z,59.79
2018-07-27T05:52:02.184Z,59.15
2018-07-27T05:56:54.952Z,59.78
2018-07-27T06:01:47.551Z,58.95
2018-07-27T06:06:40.232Z,59.67
2018-07-27T06:11:33.021Z,59.34
2018-07-27T06:16:25.705Z,59.69
2018-07-27T06:21:18.723Z,59.25
2018-07-27T06:26:11.455Z,59.59
2018-07-27T06:31:04.227Z,59.04
2018-07-27T06:35:56.875Z,59.17
2018-07-27T06:40:49.532Z,59.57
2018-07-27T06:45:43.453Z,60.21
2018-07-27T06:50:36.126Z,59.99
2018-07-27T06:55:29.110Z,61.00
2018-07-27T07:00:21.823Z,61.16
2018-07-27T07:05:14.465Z,61.07
2018-07-27T07:10:07.147Z,61.34
2018-07-27T07:14:59.965Z,61.42
2018-07-27T07:19:52.530Z,61.18
2018-07-27T07:24:45.187Z,56.79
2018-07-27T07:29:37.775Z,53.03
2018-07-27T07:34:30.423Z,50.48
2018-07-27T07:39:23.372Z,49.44
2018-07-27T07:44:16.033Z,48.93
2018-07-27T07:49:08.716Z,49.56
2018-07-27T07:54:01.642Z,50.42
2018-07-27T07:58:54.664Z,51.61
2018-07-27T08:03:47.251Z,50.95
2018-07-27T08:08:40.029Z,51.02
2018-07-27T08:13:32.686Z,51.05
2018-07-27T08:18:25.332Z,50.17
2018-07-27T08:23:18.083Z,50.60
2018-07-27T08:28:28.199Z,50.06
2018-07-27T08:33:20.892Z,50.77
2018-07-27T08:38:13.514Z,49.83
2018-07-27T08:43:06.384Z,49.70
2018-07-27T08:47:59.186Z,49.11
2018-07-27T08:52:51.914Z,49.95
2018-07-27T08:57:44.665Z,49.68
2018-07-27T09:02:37.373Z,48.99
2018-07-27T09:07:29.980Z,48.53
2018-07-27T09:12:22.679Z,49.25
2018-07-27T09:17:15.373Z,48.68
2018-07-27T09:22:08.018Z,48.16
2018-07-27T09:27:00.616Z,47.38
2018-07-27T09:31:53.226Z,47.74
2018-07-27T09:36:45.865Z,48.14
2018-07-27T09:41:38.458Z,47.36
2018-07-27T09:46:31.057Z,47.05
2018-07-27T09:51:24.283Z,45.75
2018-07-27T09:56:16.961Z,46.20
2018-07-27T10:01:15.342Z,45.42
2018-07-27T10:06:08.102Z,44.97
2018-07-27T10:11:00.675Z,44.03
2018-07-27T10:15:53.314Z,44.36
2018-07-27T10:20:45.833Z,44.33
2018-07-27T10:25:38.556Z,44.40
2018-07-27T10:30:31.861Z,44.31
2018-07-27T10:35:24.503Z,44.40
2018-07-27T10:40:17.147Z,43.63
2018-07-27T10:45:09.841Z,43.79
2018-07-27T10:50:02.430Z,43.36
2018-07-27T10:54:55.063Z,42.80
2018-07-27T10:59:47.691Z,43.30
2018-07-27T11:04:40.201Z,43.26
2018-07-27T11:09:32.890Z,42.67
2018-07-27T11:14:25.461Z,42.34
2018-07-27T11:19:18.148Z,42.58
2018-07-27T11:24:10.921Z,42.00
2018-07-27T11:29:03.710Z,41.02
2018-07-27T11:33:56.407Z,40.87
2018-07-27T11:38:49.063Z,40.74
2018-07-27T11:43:42.010Z,41.27
2018-07-27T11:48:34.740Z,41.84
2018-07-27T11:53:27.516Z,42.59
2018-07-27T11:58:20.154Z,42.52
2018-07-27T12:03:12.823Z,41.11
2018-07-27T12:08:05.453Z,41.16
2018-07-27T12:12:58.053Z,40.54
2018-07-27T12:17:50.704Z,39.15
2018-07-27T12:22:43.521Z,39.04
2018-07-27T12:27:36.175Z,37.76
2018-07-27T12:32:28.958Z,37.80
2018-07-27T12:37:21.617Z,38.03
2018-07-27T12:42:14.318Z,37.46
2018-07-27T12:47:09.114Z,37.56
2018-07-27T12:52:01.881Z,37.30
2018-07-27T12:56:54.573Z,37.15
2018-07-27T13:01:47.304Z,37.33
2018-07-27T13:06:42.900Z,36.97
2018-07-27T13:11:35.797Z,37.40
2018-07-27T13:16:28.492Z,37.19
2018-07-27T13:21:22.030Z,36.71
2018-07-27T13:31:08.777Z,36.49
2018-07-27T13:40:55.453Z,36.50
2018-07-27T13:45:48.122Z,35.31
2018-07-27T13:50:40.990Z,36.92
2018-07-27T13:55:33.588Z,35.81
2018-07-27T14:00:26.232Z,36.30
2018-07-27T14:05:19.169Z,36.04
2018-07-27T14:10:11.993Z,35.91
2018-07-27T14:15:04.657Z,35.87
2018-07-27T14:19:57.361Z,35.49
2018-07-27T14:24:50.063Z,36.28
2018-07-27T14:29:42.689Z,35.78
2018-07-27T14:34:35.390Z,34.90
2018-07-27T14:39:27.989Z,35.22
2018-07-27T14:44:20.747Z,35.50
2018-07-27T14:49:14.791Z,35.42
2018-07-27T14:54:08.573Z,34.53
2018-07-27T14:59:01.267Z,34.21
2018-07-27T15:03:53.920Z,34.27
2018-07-27T15:08:46.968Z,34.11
2018-07-27T15:13:39.605Z,34.91
2018-07-27T15:18:32.388Z,35.04
2018-07-27T15:23:25.196Z,34.97
2018-07-27T15:28:17.890Z,34.76
2018-07-27T15:33:10.691Z,35.16
2018-07-27T15:38:03.309Z,34.74
2018-07-27T15:42:56.054Z,34.17
2018-07-27T15:47:48.624Z,35.00
2018-07-27T15:52:41.202Z,34.89
2018-07-27T15:57:33.792Z,34.55
2018-07-27T16:02:26.616Z,34.54
2018-07-27T16:07:19.396Z,34.00
2018-07-27T16:12:12.119Z,34.79
2018-07-27T16:17:04.794Z,35.40
2018-07-27T16:21:58.117Z,35.28
2018-07-27T16:26:50.794Z,35.81
2018-07-27T16:31:43.404Z,35.79
2018-07-27T16:36:35.985Z,35.56
2018-07-27T16:41:28.544Z,35.58
2018-07-27T16:46:21.171Z,36.58
2018-07-27T16:51:13.877Z,37.09
2018-07-27T16:56:06.711Z,36.49
2018-07-27T17:00:59.341Z,37.78
2018-07-27T17:05:51.925Z,38.14
2018-07-27T17:10:44.483Z,37.59
2018-07-27T17:15:37.181Z,37.58
2018-07-27T17:20:29.709Z,39.14
2018-07-27T17:25:22.339Z,39.55
2018-07-27T17:30:14.922Z,39.98
2018-07-27T17:35:07.580Z,40.41
2018-07-27T17:40:00.201Z,39.86
2018-07-27T17:44:52.764Z,40.12
2018-07-27T17:49:45.324Z,39.77
2018-07-27T17:54:37.899Z,39.54
2018-07-27T17:59:30.554Z,39.21
2018-07-27T18:04:23.270Z,39.08
2018-07-27T18:09:16.060Z,40.23
2018-07-27T18:14:08.948Z,40.05
2018-07-27T18:19:01.642Z,42.25
2018-07-27T18:23:54.191Z,41.83
2018-07-27T18:28:46.852Z,42.81
2018-07-27T18:33:39.374Z,41.67
2018-07-27T18:38:31.998Z,42.46
2018-07-27T18:43:24.667Z,42.45
2018-07-27T18:48:17.219Z,43.12
2018-07-27T18:53:09.777Z,44.16
2018-07-27T18:58:02.331Z,43.25
2018-07-27T19:02:54.973Z,44.29
2018-07-27T19:07:47.600Z,45.85
2018-07-27T19:12:40.173Z,44.85
2018-07-27T19:17:32.674Z,45.69
2018-07-27T19:22:25.256Z,46.61
2018-07-27T19:27:17.919Z,46.15
2018-07-27T19:32:10.541Z,46.22
2018-07-27T19:37:03.078Z,47.13
2018-07-27T19:41:55.881Z,46.76
2018-07-27T19:46:48.663Z,46.26
2018-07-27T19:51:41.386Z,47.50
2018-07-27T19:56:33.978Z,48.31
2018-07-27T20:01:26.618Z,47.34
2018-07-27T20:06:19.311Z,48.14
2018-07-27T20:11:11.918Z,47.55
2018-07-27T20:16:04.660Z,48.29
2018-07-27T20:20:57.407Z,48.34
2018-07-27T20:25:51.066Z,48.37
2018-07-27T20:30:43.654Z,48.91
2018-07-27T20:35:36.348Z,48.39
2018-07-27T20:40:29.035Z,48.12
2018-07-27T20:45:21.799Z,48.62
2018-07-27T20:50:14.359Z,49.89
2018-07-27T20:55:07.032Z,49.22
2018-07-27T20:59:59.599Z,49.91
2018-07-27T21:04:52.222Z,50.47
2018-07-27T21:09:44.911Z,50.46
2018-07-27T21:14:37.487Z,50.59
2018-07-27T21:19:30.181Z,50.71
2018-07-27T21:24:24.006Z,50.70
2018-07-27T21:29:16.662Z,51.25
2018-07-27T21:34:09.275Z,51.06
2018-07-27T21:39:02.051Z,51.22
2018-07-27T21:43:55.008Z,51.81
2018-07-27T21:48:47.944Z,52.21
2018-07-27T21:53:40.479Z,52.21
2018-07-27T21:58:33.107Z,51.62
2018-07-27T22:03:25.837Z,52.63
2018-07-27T22:08:18.695Z,51.43
2018-07-27T22:13:11.429Z,51.48
2018-07-27T22:18:04.359Z,51.53
2018-07-27T22:22:57.776Z,52.63
2018-07-27T22:27:50.529Z,52.19
2018-07-27T22:32:43.148Z,51.84
2018-07-27T22:37:36.676Z,52.49
2018-07-27T22:42:29.539Z,53.01
2018-07-27T22:47:22.057Z,53.12
2018-07-27T22:52:14.630Z,53.24
2018-07-27T22:57:07.317Z,53.82
2018-07-27T23:02:00.030Z,54.32
2018-07-27T23:06:52.686Z,53.80
2018-07-27T23:11:45.284Z,53.58
2018-07-27T23:16:37.962Z,53.85
2018-07-27T23:21:30.517Z,54.05
2018-07-27T23:26:23.120Z,54.12
2018-07-27T23:31:15.729Z,55.34
2018-07-27T23:36:08.510Z,54.81
2018-07-27T23:41:01.115Z,54.96
2018-07-27T23:45:53.854Z,55.74
2018-07-27T23:50:46.468Z,55.99
2018-07-27T23:55:39.086Z,55.44
